createdAt,value
2023-10-09T05:45:48.055Z,25.08
2023-10-09T05:48:52.190Z,25.04
2023-10-09T05:51:45.006Z,25.61
2023-10-09T05:54:51.017Z,24.50
2023-10-09T05:57:51.652Z,25.52
2023-10-09T06:00:57.197Z,25.36
2023-10-09T06:03:56.640Z,25.91
2023-10-09T06:06:47.186Z,25.58
2023-10-09T06:09:47.960Z,25.41
2023-10-09T06:12:54.707Z,26.39
2023-10-09T06:15:52.741Z,26.28
2023-10-09T06:18:44.598Z,26.44
2023-10-09T06:21:56.991Z,26.01
2023-10-09T06:24:44.117Z,25.70
2023-10-09T06:27:58.125Z,26.42
2023-10-09T06:30:48.385Z,26.38
2023-10-09T06:33:53.815Z,25.56
2023-10-09T06:36:53.933Z,26.16
2023-10-09T06:39:51.734Z,27.12
2023-10-09T06:42:52.348Z,26.43
2023-10-09T06:58:27.654Z,26.28
2023-10-09T07:01:30.052Z,26.05
2023-10-09T07:04:42.853Z,26.68
2023-10-09T07:07:36.075Z,26.68
2023-10-09T07:10:33.737Z,26.11
2023-10-09T07:13:25.481Z,26.10
2023-10-09T07:16:29.804Z,26.36
2023-10-09T07:19:36.366Z,26.47
2023-10-09T07:22:30.427Z,25.88
2023-10-09T07:25:28.905Z,26.33
2023-10-09T07:28:30.479Z,27.38
2023-10-09T07:31:41.138Z,27.95
2023-10-09T07:34:53.789Z,27.09
2023-10-09T07:37:43.064Z,26.86
2023-10-09T07:40:32.772Z,26.08
2023-10-09T07:43:19.100Z,25.68
2023-10-09T07:46:25.865Z,26.26
2023-10-09T07:49:15.344Z,25.52
2023-10-09T07:52:02.077Z,25.14
2023-10-09T07:54:54.120Z,25.12
2023-10-09T07:57:41.140Z,25.37
2023-10-09T08:00:59.838Z,25.73
2023-10-09T08:03:58.384Z,27.26
2023-10-09T08:07:04.311Z,27.89
2023-10-09T08:10:18.724Z,25.54
2023-10-09T08:13:28.895Z,26.27
2023-10-09T08:16:21.480Z,26.13
2023-10-09T08:19:33.520Z,25.89
2023-10-09T08:22:40.175Z,27.65
2023-10-09T08:25:29.090Z,27.38
2023-10-09T08:28:38.988Z,28.16
2023-10-09T08:31:46.301Z,27.45
2023-10-09T08:37:40.981Z,25.27
2023-10-09T08:40:34.646Z,27.26
2023-10-09T08:43:22.155Z,27.34
2023-10-09T08:46:09.641Z,26.80
2023-10-09T08:48:57.677Z,26.62
2023-10-09T08:51:43.793Z,27.37
2023-10-09T08:54:34.363Z,28.44
2023-10-09T08:57:21.122Z,27.45
2023-10-09T09:00:12.634Z,26.54
2023-10-09T09:03:01.369Z,26.96
2023-10-09T09:05:50.636Z,26.87
2023-10-09T09:08:37.856Z,26.97
2023-10-09T09:11:26.437Z,27.01
2023-10-09T09:14:19.883Z,26.75
2023-10-09T09:17:12.230Z,27.41
2023-10-09T09:19:59.917Z,27.52
2023-10-09T09:22:55.811Z,28.55
2023-10-09T09:25:45.734Z,29.61
2023-10-09T09:28:40.224Z,29.82
2023-10-09T09:31:27.918Z,28.47
2023-10-09T09:34:18.143Z,28.49
2023-10-09T09:37:05.956Z,28.65
2023-10-09T09:39:56.305Z,29.34
2023-10-09T09:42:46.818Z,29.73
2023-10-09T09:45:35.490Z,29.90
2023-10-09T09:48:21.934Z,29.29
2023-10-09T09:51:09.746Z,29.91
2023-10-09T09:53:56.314Z,30.53
2023-10-09T09:56:46.202Z,30.34
2023-10-09T09:59:36.532Z,28.74
2023-10-09T10:02:35.798Z,30.42
2023-10-09T10:05:22.989Z,31.24
2023-10-09T10:08:14.054Z,30.85
2023-10-09T10:11:06.743Z,29.29
2023-10-09T10:14:00.331Z,30.91
2023-10-09T10:17:02.687Z,30.01
2023-10-09T10:20:26.269Z,29.30
2023-10-09T10:23:20.133Z,30.32
2023-10-09T10:26:19.356Z,31.27
2023-10-09T10:29:27.676Z,30.77
2023-10-09T11:01:59.922Z,31.55
2023-10-09T11:04:54.987Z,31.71
2023-10-09T11:07:42.219Z,31.97
2023-10-09T11:10:32.830Z,31.54
2023-10-09T11:13:34.311Z,31.75
2023-10-09T13:14:26.593Z,31.89
2023-10-09T13:17:14.552Z,30.49
2023-10-09T13:20:01.207Z,32.10
2023-10-09T13:22:49.630Z,30.42
2023-10-09T13:25:40.881Z,32.24
2023-10-09T13:28:27.529Z,32.48
2023-10-09T13:31:16.330Z,32.06
2023-10-09T13:34:04.089Z,30.31
2023-10-09T13:36:54.188Z,31.24
2023-10-09T13:39:42.076Z,31.30
2023-10-09T13:42:28.852Z,31.46
2023-10-09T13:45:17.726Z,30.12
2023-10-09T13:48:06.200Z,30.41
2023-10-09T13:50:59.895Z,32.14
2023-10-09T13:53:49.874Z,31.63
2023-10-09T13:56:40.263Z,31.75
2023-10-09T13:59:27.003Z,30.07
2023-10-09T14:02:19.410Z,32.24
2023-10-09T14:05:09.633Z,31.89
2023-10-09T14:08:01.221Z,31.59
2023-10-09T14:10:50.746Z,31.51
2023-10-09T14:13:39.158Z,31.08
2023-10-09T14:16:28.680Z,31.89
2023-10-09T14:19:22.183Z,31.25
2023-10-09T14:22:11.818Z,30.35
2023-10-09T14:24:58.882Z,31.60
2023-10-09T14:27:46.503Z,30.80
2023-10-09T14:30:34.970Z,31.53
2023-10-09T14:33:24.617Z,30.84
2023-10-09T14:36:17.897Z,32.09
2023-10-09T14:39:07.946Z,31.22
2023-10-09T14:41:55.559Z,31.61
2023-10-09T14:44:42.095Z,30.95
2023-10-09T14:47:28.322Z,31.82
2023-10-09T14:50:16.382Z,31.55
2023-10-09T14:53:02.925Z,29.52
2023-10-09T14:55:56.412Z,30.52
2023-10-09T14:58:43.387Z,32.11
2023-10-09T15:01:32.167Z,31.08
2023-10-09T15:04:18.700Z,30.73
2023-10-09T15:07:07.963Z,31.86
2023-10-09T15:10:05.079Z,31.08
2023-10-09T15:12:54.925Z,31.02
2023-10-09T15:15:46.524Z,30.50
2023-10-09T15:18:39.626Z,30.98
2023-10-09T15:21:27.659Z,31.14
2023-10-09T15:24:20.466Z,31.44
2023-10-09T15:27:10.602Z,30.46
2023-10-09T15:30:01.257Z,30.66
2023-10-09T15:32:51.398Z,30.90
2023-10-09T15:35:39.752Z,30.74
2023-10-09T15:38:26.436Z,31.21
2023-10-09T15:41:12.841Z,30.31
2023-10-09T15:44:00.379Z,30.90
2023-10-09T15:46:48.226Z,30.56
2023-10-09T15:49:35.009Z,30.67
2023-10-09T15:52:21.852Z,29.64
2023-10-09T15:55:14.372Z,30.01
2023-10-09T15:58:00.961Z,30.64
2023-10-09T16:00:47.812Z,30.62
2023-10-09T16:03:35.787Z,31.09
2023-10-09T16:06:22.308Z,30.27
2023-10-09T16:09:12.421Z,30.06
2023-10-09T16:11:58.604Z,30.54
2023-10-09T16:14:45.260Z,31.31
2023-10-09T16:17:31.913Z,30.35
2023-10-09T16:20:26.760Z,28.84
2023-10-09T16:23:18.513Z,29.38
2023-10-09T16:26:08.237Z,29.89
2023-10-09T16:28:54.869Z,29.26
2023-10-09T16:31:42.233Z,29.15
2023-10-09T16:34:30.351Z,29.08
2023-10-09T16:37:19.404Z,29.77
2023-10-09T16:40:12.336Z,29.59
2023-10-09T16:43:02.205Z,29.80
2023-10-09T16:45:48.909Z,29.37
2023-10-09T16:48:38.404Z,29.47
2023-10-09T16:51:25.754Z,28.84
2023-10-09T16:54:16.842Z,28.84
2023-10-09T16:57:03.151Z,28.37
2023-10-09T16:59:53.016Z,29.07
2023-10-09T17:02:41.444Z,29.37
2023-10-09T17:05:34.137Z,29.66
2023-10-09T17:08:20.849Z,29.66
2023-10-09T17:11:11.108Z,29.58
2023-10-09T17:13:58.790Z,29.09
2023-10-09T17:16:46.439Z,27.97
2023-10-09T17:19:33.840Z,28.19
2023-10-09T17:22:20.159Z,28.33
2023-10-09T17:25:07.496Z,28.55
2023-10-09T17:27:55.643Z,29.17
2023-10-09T17:30:42.365Z,28.90
2023-10-09T17:33:28.703Z,28.83
2023-10-09T17:36:17.837Z,28.23
2023-10-09T17:39:05.962Z,29.28
2023-10-09T17:41:54.177Z,28.61
2023-10-09T17:44:41.813Z,28.55
2023-10-09T17:47:28.629Z,27.83
2023-10-09T17:50:15.516Z,27.76
2023-10-09T17:53:05.780Z,28.35
2023-10-09T17:55:54.586Z,28.77
2023-10-09T17:58:45.217Z,28.91
2023-10-09T18:01:34.110Z,28.73
2023-10-09T18:04:20.333Z,28.66
2023-10-09T18:07:06.928Z,28.38
2023-10-09T18:09:54.300Z,28.87
2023-10-09T18:12:41.092Z,29.05
2023-10-09T18:15:30.197Z,28.80
2023-10-09T18:18:20.813Z,28.84
2023-10-09T18:21:09.095Z,29.41
2023-10-09T18:23:59.478Z,28.61
2023-10-09T18:26:47.123Z,29.03
2023-10-09T18:29:33.320Z,29.09
2023-10-09T18:32:24.579Z,29.40
2023-10-09T18:35:17.084Z,29.43
2023-10-09T18:38:05.973Z,29.48
2023-10-09T18:40:52.971Z,29.26
2023-10-09T18:43:41.188Z,29.50
2023-10-09T18:46:27.836Z,29.41
2023-10-09T18:49:14.698Z,29.09
2023-10-09T18:52:02.969Z,28.88
2023-10-09T18:54:49.433Z,29.45
2023-10-09T18:57:36.825Z,29.56
2023-10-09T19:00:31.384Z,29.59
2023-10-09T19:03:20.553Z,29.48
2023-10-09T19:06:09.411Z,29.40
2023-10-09T19:08:59.552Z,29.07
2023-10-09T19:11:46.101Z,29.17
2023-10-09T19:14:32.631Z,29.00
2023-10-09T19:17:20.250Z,28.95
2023-10-09T19:20:11.760Z,28.39
2023-10-09T19:23:01.562Z,28.53
2023-10-09T19:25:49.603Z,28.60
2023-10-09T19:28:41.650Z,29.33
2023-10-09T19:31:33.237Z,29.40
2023-10-09T19:34:22.295Z,29.15
2023-10-09T19:37:09.200Z,28.86
2023-10-09T19:39:55.477Z,28.68
2023-10-09T19:42:43.905Z,28.86
2023-10-09T19:45:31.501Z,29.32
2023-10-09T19:48:18.074Z,28.74
2023-10-09T19:51:05.469Z,29.21
2023-10-09T19:53:53.495Z,28.83
2023-10-09T19:56:43.908Z,29.30
2023-10-09T19:59:32.197Z,29.27
2023-10-09T20:02:18.664Z,29.31
2023-10-09T20:05:07.216Z,29.30
2023-10-09T20:07:56.365Z,29.38
2023-10-09T20:10:43.242Z,29.18
2023-10-09T20:13:29.537Z,28.45
2023-10-09T20:16:18.161Z,28.01
2023-10-09T20:19:09.329Z,28.18
2023-10-09T20:21:56.169Z,28.32
2023-10-09T20:24:42.457Z,28.03
2023-10-09T20:27:31.572Z,28.92
2023-10-09T20:30:18.139Z,29.10
2023-10-09T20:33:06.971Z,28.33
2023-10-09T20:35:57.306Z,28.94
2023-10-09T20:38:43.739Z,29.05
2023-10-09T20:41:32.837Z,29.06
2023-10-09T20:44:19.792Z,28.85
2023-10-09T20:47:06.031Z,28.35
2023-10-09T20:49:58.475Z,28.83
2023-10-09T20:52:48.116Z,28.90
2023-10-09T20:55:34.661Z,28.78
2023-10-09T20:58:21.902Z,28.81
2023-10-09T21:01:15.493Z,28.90
2023-10-09T21:04:04.576Z,27.95
2023-10-09T21:06:54.449Z,28.34
2023-10-09T21:09:40.918Z,28.73
2023-10-09T21:12:27.410Z,28.68
2023-10-09T21:15:15.031Z,28.87
2023-10-09T21:18:01.561Z,29.06
2023-10-09T21:20:48.147Z,29.17
2023-10-09T21:23:35.956Z,28.94
2023-10-09T21:26:25.004Z,28.84
2023-10-09T21:29:12.776Z,28.93
2023-10-09T21:31:59.445Z,28.73
2023-10-09T21:34:47.183Z,28.63
2023-10-09T21:37:33.738Z,28.75
2023-10-09T21:40:29.128Z,28.74
2023-10-09T21:43:18.578Z,28.68
2023-10-09T21:46:08.702Z,28.41
2023-10-09T21:48:55.085Z,28.42
2023-10-09T21:51:42.322Z,28.55
2023-10-09T21:54:30.307Z,28.78
2023-10-09T21:57:18.944Z,28.53
2023-10-09T22:00:12.866Z,28.40
2023-10-09T22:02:59.599Z,28.52
2023-10-09T22:05:47.414Z,28.65
2023-10-09T22:08:36.024Z,28.74
2023-10-09T22:11:22.680Z,28.80
2023-10-09T22:14:10.721Z,28.79
